Time;durP1;ratioP1;P1;durP2;ratioP2;P2;SDS_P1;SDS_P2;PMS_P1;PMS_P2;Temp;Humidity;BMP_temperature;BMP_pressure;BME280_temperature;BME280_humidity;BME280_pressure;Samples;Min_cycle;Max_cycle;Signal;HPM_P1;HPM_P2
2022/04/22 00:01:35;;;;;;;;;;;358.40;2329.60;;;;;;5053519;28;19904;-81
2022/04/22 00:04:00;;;;;;;;;;;358.40;2329.60;;;;;;5051201;28;19909;-80
2022/04/22 00:06:27;;;;;;;;;;;358.40;2329.60;;;;;;5053561;28;20004;-80
2022/04/22 00:08:53;;;;;;;;;;;358.40;2329.60;;;;;;5053605;28;19912;-80
2022/04/22 00:11:30;;;;;;;;;;;333.70;2329.60;;;;;;5053727;28;19917;-80
2022/04/22 00:14:05;;;;;;;;;;;333.70;2329.60;;;;;;5054068;28;19905;-80
2022/04/22 00:16:32;;;;;;;;;;;333.70;2329.60;;;;;;5054768;28;19994;-81
2022/04/22 00:18:58;;;;;;;;;;;333.60;2329.60;;;;;;5053597;28;19905;-79
2022/04/22 00:21:24;;;;;;;;;;;333.50;2329.60;;;;;;5053558;28;19948;-79
2022/04/22 00:23:49;;;;;;;;;;;333.50;2329.60;;;;;;5053481;28;19940;-81
2022/04/22 00:26:18;;;;;;;;;;;333.50;2329.60;;;;;;5052689;28;20357;-80
2022/04/22 00:28:44;;;;;;;;;;;333.40;2329.60;;;;;;5052827;28;19908;-81
2022/04/22 00:31:09;;;;;;;;;;;333.40;2329.60;;;;;;5054725;28;19912;-81
2022/04/22 00:33:35;;;;;;;;;;;333.40;2329.60;;;;;;5052824;28;20432;-81
2022/04/22 00:36:01;;;;;;;;;;;333.40;2329.60;;;;;;5053173;28;19909;-80
2022/04/22 00:38:27;;;;;;;;;;;333.30;2329.60;;;;;;5053147;28;19912;-80
2022/04/22 00:40:55;;;;;;;;;;;333.30;2329.60;;;;;;5053427;28;20030;-80
2022/04/22 00:43:21;;;;;;;;;;;333.30;2329.60;;;;;;5053034;28;19905;-80
2022/04/22 00:45:47;;;;;;;;;;;333.30;2329.60;;;;;;5053204;28;19958;-80
2022/04/22 00:48:13;;;;;;;;;;;333.30;2329.60;;;;;;5053088;28;20307;-80
2022/04/22 00:50:39;;;;;;;;;;;333.30;2329.60;;;;;;5053113;28;19974;-80
2022/04/22 00:53:06;;;;;;;;;;;333.30;2329.60;;;;;;5052859;28;19905;-79
2022/04/22 00:55:32;;;;;;;;;;;333.30;2329.60;;;;;;5052348;28;20115;-80
2022/04/22 00:57:58;;;;;;;;;;;333.20;2329.60;;;;;;5053965;28;19909;-80
2022/04/22 01:00:24;;;;;;;;;;;333.30;2329.60;;;;;;5052655;28;19954;-80
2022/04/22 01:02:50;;;;;;;;;;;333.20;2329.60;;;;;;5053420;28;19908;-80
2022/04/22 01:10:44;;;;;;;;;;;333.10;2329.60;;;;;;5051649;28;19966;-80
2022/04/22 01:13:09;;;;;;;;;;;333.10;2329.60;;;;;;5053655;28;19905;-79
2022/04/22 01:15:35;;;;;;;;;;;333.10;2329.60;;;;;;5053954;28;19912;-80
2022/04/22 01:18:01;;;;;;;;;;;333.10;2329.60;;;;;;5049520;28;19905;-80
2022/04/22 01:20:27;;;;;;;;;;;333.00;2329.60;;;;;;5052693;28;19927;-80
2022/04/22 01:22:52;;;;;;;;;;;333.00;2329.60;;;;;;5052369;28;19905;-80
2022/04/22 01:25:18;;;;;;;;;;;333.00;2329.60;;;;;;5053683;28;19909;-80
2022/04/22 01:27:46;;;;;;;;;;;333.00;2329.60;;;;;;5052116;28;20365;-80
2022/04/22 01:30:11;;;;;;;;;;;332.90;2329.60;;;;;;5053332;28;19913;-81
2022/04/22 01:32:37;;;;;;;;;;;332.90;2329.60;;;;;;5052142;28;19951;-80
2022/04/22 01:35:03;;;;;;;;;;;332.90;2329.60;;;;;;5052360;28;19916;-80
2022/04/22 01:37:31;;;;;;;;;;;332.80;2329.60;;;;;;5053548;28;19904;-81
2022/04/22 01:39:57;;;;;;;;;;;332.80;2329.60;;;;;;5052215;28;20911;-80
2022/04/22 01:42:22;;;;;;;;;;;332.80;2329.60;;;;;;5053216;28;20382;-80
2022/04/22 01:44:49;;;;;;;;;;;308.10;2304.00;;;;;;5051965;28;19908;-80
2022/04/22 01:47:15;;;;;;;;;;;308.10;2304.00;;;;;;5053384;28;19905;-80
2022/04/22 01:49:41;;;;;;;;;;;308.10;2304.00;;;;;;5052991;28;20004;-80
2022/04/22 01:52:07;;;;;;;;;;;332.80;2329.60;;;;;;5052183;28;19909;-79
2022/04/22 01:54:32;;;;;;;;;;;308.10;2304.00;;;;;;5052064;28;19912;-80
2022/04/22 01:56:58;;;;;;;;;;;308.10;2304.00;;;;;;5051878;28;19943;-80
2022/04/22 01:59:23;;;;;;;;;;;308.10;2304.00;;;;;;5052040;28;20007;-80
2022/04/22 02:01:49;;;;;;;;;;;308.10;2304.00;;;;;;5051764;28;20345;-80
2022/04/22 02:04:15;;;;;;;;;;;308.10;2304.00;;;;;;5051941;28;19904;-80
2022/04/22 02:06:40;;;;;;;;;;;308.10;2304.00;;;;;;5053094;28;19905;-81
2022/04/22 02:09:06;;;;;;;;;;;308.00;2304.00;;;;;;5051941;28;20042;-79
2022/04/22 02:11:32;;;;;;;;;;;308.00;2304.00;;;;;;5051521;28;20282;-80
2022/04/22 02:13:58;;;;;;;;;;;308.10;2304.00;;;;;;5053239;28;20074;-81
2022/04/22 02:16:23;;;;;;;;;;;308.10;2304.00;;;;;;5052767;28;19939;-81
2022/04/22 02:18:49;;;;;;;;;;;308.10;2304.00;;;;;;5052983;28;19904;-80
2022/04/22 02:21:15;;;;;;;;;;;308.00;2304.00;;;;;;5051698;28;19928;-80
2022/04/22 02:23:41;;;;;;;;;;;308.00;2304.00;;;;;;5051903;28;20349;-81
2022/04/22 02:26:06;;;;;;;;;;;308.00;2304.00;;;;;;5051568;28;19956;-80
2022/04/22 02:28:32;;;;;;;;;;;308.00;2304.00;;;;;;5051637;28;19920;-80
2022/04/22 02:30:59;;;;;;;;;;;308.00;2304.00;;;;;;5051952;28;19971;-80
2022/04/22 02:33:25;;;;;;;;;;;308.00;2304.00;;;;;;5049166;28;20249;-79
2022/04/22 02:35:51;;;;;;;;;;;308.10;2304.00;;;;;;5052881;28;19911;-80
2022/04/22 02:38:16;;;;;;;;;;;308.10;2304.00;;;;;;5051333;28;19952;-80
2022/04/22 02:46:10;;;;;;;;;;;308.10;2304.00;;;;;;5052872;28;19912;-80
2022/04/22 02:48:35;;;;;;;;;;;308.00;2304.00;;;;;;5051570;28;19908;-81
2022/04/22 02:51:01;;;;;;;;;;;308.10;2304.00;;;;;;5053136;28;19912;-80
2022/04/22 02:53:27;;;;;;;;;;;308.00;2304.00;;;;;;5056568;28;19905;-80
2022/04/22 02:55:52;;;;;;;;;;;308.00;2304.00;;;;;;5054758;28;19908;-79
2022/04/22 02:58:18;;;;;;;;;;;308.00;2304.00;;;;;;5055422;28;19913;-81
2022/04/22 03:00:44;;;;;;;;;;;308.00;2304.00;;;;;;5062796;28;19905;-94
2022/04/22 03:03:10;;;;;;;;;;;308.00;2304.00;;;;;;5067582;28;19911;-80
2022/04/22 03:05:36;;;;;;;;;;;308.00;2304.00;;;;;;5054675;28;19908;-80
2022/04/22 03:08:01;;;;;;;;;;;308.00;2304.00;;;;;;5054618;28;19913;-79
2022/04/22 03:10:27;;;;;;;;;;;308.00;2304.00;;;;;;5056140;28;19935;-80
2022/04/22 03:12:53;;;;;;;;;;;307.80;2304.00;;;;;;5056208;28;19958;-80
2022/04/22 03:15:19;;;;;;;;;;;308.00;2304.00;;;;;;5055019;28;19944;-79
2022/04/22 03:17:45;;;;;;;;;;;308.00;2304.00;;;;;;5056151;28;19962;-80
2022/04/22 03:20:11;;;;;;;;;;;308.00;2304.00;;;;;;5054846;28;19904;-79
2022/04/22 03:22:36;;;;;;;;;;;308.00;2304.00;;;;;;5055613;28;19916;-80
2022/04/22 03:25:02;;;;;;;;;;;308.10;2304.00;;;;;;5055576;28;19913;-80
2022/04/22 03:27:28;;;;;;;;;;;308.10;2304.00;;;;;;5055490;28;19930;-80
2022/04/22 03:29:53;;;;;;;;;;;308.10;2304.00;;;;;;5056083;28;20272;-80
2022/04/22 03:32:19;;;;;;;;;;;308.10;2304.00;;;;;;5055636;28;19915;-80
2022/04/22 03:34:45;;;;;;;;;;;308.10;2304.00;;;;;;5054626;28;19905;-80
2022/04/22 03:37:10;;;;;;;;;;;308.10;2304.00;;;;;;5055889;28;19912;-80
2022/04/22 03:39:36;;;;;;;;;;;332.80;2329.60;;;;;;5054078;28;19916;-80
2022/04/22 03:42:01;;;;;;;;;;;332.80;2329.60;;;;;;5054471;28;19905;-80
2022/04/22 03:44:27;;;;;;;;;;;332.80;2329.60;;;;;;5054386;28;19904;-78
2022/04/22 03:46:53;;;;;;;;;;;332.80;2329.60;;;;;;5055539;28;19907;-81
2022/04/22 03:49:18;;;;;;;;;;;332.80;2329.60;;;;;;5054167;28;19905;-79
2022/04/22 03:51:44;;;;;;;;;;;332.80;2329.60;;;;;;5053737;28;19920;-79
2022/04/22 03:54:10;;;;;;;;;;;332.80;2329.60;;;;;;5053979;28;20264;-79
2022/04/22 03:59:19;;;;;;;;;;;332.80;2329.60;;;;;;5054426;28;19960;-80
2022/04/22 04:01:45;;;;;;;;;;;332.80;2329.60;;;;;;5054774;28;19908;-81
2022/04/22 04:04:11;;;;;;;;;;;308.10;2304.00;;;;;;5053160;28;19908;-81
2022/04/22 04:06:36;;;;;;;;;;;308.10;2304.00;;;;;;5053986;28;19963;-81
2022/04/22 04:17:15;;;;;;;;;;;308.00;2304.00;;;;;;5053346;28;19927;-81
2022/04/22 04:25:09;;;;;;;;;;;308.10;2304.00;;;;;;5054614;28;19950;-83
2022/04/22 04:27:36;;;;;;;;;;;308.10;2304.00;;;;;;5053496;28;19917;-80
2022/04/22 04:30:02;;;;;;;;;;;308.10;2304.00;;;;;;5054663;28;19919;-81
2022/04/22 04:32:28;;;;;;;;;;;308.10;2304.00;;;;;;5052942;28;19939;-81
2022/04/22 04:34:53;;;;;;;;;;;308.10;2304.00;;;;;;5054602;28;19904;-82
2022/04/22 04:37:19;;;;;;;;;;;308.10;2304.00;;;;;;5054807;28;19951;-82
2022/04/22 04:39:44;;;;;;;;;;;308.10;2304.00;;;;;;5053619;28;19905;-81
2022/04/22 04:42:10;;;;;;;;;;;308.10;2304.00;;;;;;5053648;28;19959;-83
2022/04/22 04:44:37;;;;;;;;;;;308.10;2304.00;;;;;;5053139;28;20386;-82
2022/04/22 04:47:03;;;;;;;;;;;308.10;2304.00;;;;;;5053083;28;19912;-81
2022/04/22 04:49:29;;;;;;;;;;;308.10;2304.00;;;;;;5053220;28;20300;-80
2022/04/22 04:51:54;;;;;;;;;;;308.10;2304.00;;;;;;5052682;28;19913;-83
2022/04/22 04:54:20;;;;;;;;;;;332.80;2329.60;;;;;;5053312;28;19904;-80
2022/04/22 04:56:46;;;;;;;;;;;332.80;2329.60;;;;;;5053702;28;20380;-83
2022/04/22 04:59:12;;;;;;;;;;;332.80;2329.60;;;;;;5052996;28;19909;-84
2022/04/22 05:01:37;;;;;;;;;;;332.80;2329.60;;;;;;5052773;28;20106;-83
2022/04/22 05:04:03;;;;;;;;;;;332.90;2329.60;;;;;;5053200;28;19904;-82
2022/04/22 05:06:29;;;;;;;;;;;332.90;2329.60;;;;;;5053031;28;20289;-80
2022/04/22 05:08:56;;;;;;;;;;;332.90;2329.60;;;;;;5053715;28;19904;-80
2022/04/22 05:11:21;;;;;;;;;;;332.90;2329.60;;;;;;5053546;28;20469;-81
2022/04/22 05:13:47;;;;;;;;;;;332.90;2329.60;;;;;;5052424;28;19913;-83
2022/04/22 05:16:13;;;;;;;;;;;332.90;2329.60;;;;;;5052816;28;19963;-81
2022/04/22 05:18:40;;;;;;;;;;;332.90;2329.60;;;;;;5052502;28;19915;-80
2022/04/22 05:21:05;;;;;;;;;;;332.90;2329.60;;;;;;5052929;28;19909;-79
2022/04/22 05:23:31;;;;;;;;;;;332.90;2329.60;;;;;;5052243;28;19928;-80
2022/04/22 05:25:57;;;;;;;;;;;332.90;2329.60;;;;;;5053522;28;19909;-80
2022/04/22 05:28:22;;;;;;;;;;;332.90;2329.60;;;;;;5052437;28;19917;-80
2022/04/22 05:33:33;;;;;;;;;;;333.00;2329.60;;;;;;5053953;28;19911;-80
2022/04/22 05:35:59;;;;;;;;;;;333.00;2329.60;;;;;;5052499;28;19909;-80
2022/04/22 05:38:25;;;;;;;;;;;333.10;2329.60;;;;;;5052208;28;20398;-80
2022/04/22 05:40:50;;;;;;;;;;;333.10;2329.60;;;;;;5051935;28;19908;-79
2022/04/22 05:43:16;;;;;;;;;;;333.10;2329.60;;;;;;5052319;28;20011;-80
2022/04/22 05:45:41;;;;;;;;;;;333.20;2329.60;;;;;;5051846;28;19908;-78
2022/04/22 05:48:07;;;;;;;;;;;333.30;2329.60;;;;;;5052025;28;20003;-79
2022/04/22 05:50:33;;;;;;;;;;;333.20;2329.60;;;;;;5052908;28;20365;-79
2022/04/22 05:52:58;;;;;;;;;;;333.30;2329.60;;;;;;5052606;28;19911;-78
2022/04/22 05:55:25;;;;;;;;;;;333.30;2329.60;;;;;;5052151;28;19912;-78
2022/04/22 05:57:53;;;;;;;;;;;333.20;2329.60;;;;;;5052380;28;19993;-79
2022/04/22 06:00:19;;;;;;;;;;;333.30;2329.60;;;;;;5052957;28;19912;-79
2022/04/22 06:02:45;;;;;;;;;;;333.30;2329.60;;;;;;5052039;28;20011;-82
2022/04/22 06:05:12;;;;;;;;;;;333.30;2329.60;;;;;;5053404;28;19948;-80
2022/04/22 06:07:38;;;;;;;;;;;333.30;2329.60;;;;;;5053087;28;19983;-78
2022/04/22 06:12:48;;;;;;;;;;;333.30;2329.60;;;;;;5053419;28;19916;-78
2022/04/22 06:15:14;;;;;;;;;;;333.40;2329.60;;;;;;5052886;28;19905;-77
2022/04/22 06:17:40;;;;;;;;;;;333.40;2329.60;;;;;;5052966;28;19905;-78
2022/04/22 06:20:06;;;;;;;;;;;333.60;2329.60;;;;;;5051632;28;19911;-78
2022/04/22 06:22:31;;;;;;;;;;;333.70;2329.60;;;;;;5052883;28;20272;-78
2022/04/22 06:24:57;;;;;;;;;;;358.40;2329.60;;;;;;5051281;28;19905;-77
2022/04/22 06:27:27;;;;;;;;;;;358.50;2329.60;;;;;;5054917;28;20796;-77
2022/04/22 06:29:53;;;;;;;;;;;358.50;2329.60;;;;;;5055489;28;20284;-77
2022/04/22 06:32:20;;;;;;;;;;;358.70;2329.60;;;;;;5055757;28;19913;-77
2022/04/22 06:34:47;;;;;;;;;;;358.80;2329.60;;;;;;5055583;28;19905;-79
2022/04/22 06:37:12;;;;;;;;;;;358.80;2329.60;;;;;;5055848;28;19955;-78
2022/04/22 06:47:52;;;;;;;;;;;384.00;2329.60;;;;;;5057286;28;19912;-79
2022/04/22 06:50:19;;;;;;;;;;;384.00;2329.60;;;;;;5055310;28;19924;-79
2022/04/22 06:52:47;;;;;;;;;;;384.10;2329.60;;;;;;5056548;28;19905;-78
2022/04/22 06:55:16;;;;;;;;;;;384.20;2329.60;;;;;;5055882;28;19909;-78
2022/04/22 06:57:45;;;;;;;;;;;384.40;2329.60;;;;;;5054788;28;20000;-78
2022/04/22 07:00:11;;;;;;;;;;;384.50;2329.60;;;;;;5056256;28;20003;-77
2022/04/22 07:02:37;;;;;;;;;;;384.70;2329.60;;;;;;5056112;28;19951;-78
2022/04/22 07:05:03;;;;;;;;;;;384.80;2329.60;;;;;;5054429;28;20352;-77
2022/04/22 07:07:28;;;;;;;;;;;384.70;2329.60;;;;;;5054669;28;20379;-77
2022/04/22 07:09:54;;;;;;;;;;;384.70;2329.60;;;;;;5056082;28;19905;-78
2022/04/22 07:12:21;;;;;;;;;;;384.90;2329.60;;;;;;5054514;28;19916;-77
2022/04/22 07:14:48;;;;;;;;;;;384.90;2329.60;;;;;;5055000;28;19904;-78
2022/04/22 07:17:14;;;;;;;;;;;409.70;2355.20;;;;;;5055748;28;19909;-78
2022/04/22 07:19:41;;;;;;;;;;;409.80;2355.20;;;;;;5054722;28;19912;-77
2022/04/22 07:22:07;;;;;;;;;;;409.80;2355.20;;;;;;5055925;28;19905;-77
2022/04/22 07:24:32;;;;;;;;;;;409.90;2355.20;;;;;;5055485;28;19987;-77
2022/04/22 07:26:58;;;;;;;;;;;410.00;2355.20;;;;;;5053342;28;20368;-78
2022/04/22 07:29:24;;;;;;;;;;;435.20;2355.20;;;;;;5054596;28;19912;-76
2022/04/22 07:31:50;;;;;;;;;;;410.20;2355.20;;;;;;5054003;28;19956;-77
2022/04/22 07:34:15;;;;;;;;;;;410.30;2355.20;;;;;;5053683;28;19905;-78
2022/04/22 07:36:42;;;;;;;;;;;410.40;2355.20;;;;;;5054230;28;20272;-76
2022/04/22 07:39:08;;;;;;;;;;;410.50;2355.20;;;;;;5053554;28;20167;-77
2022/04/22 07:41:38;;;;;;;;;;;435.30;2355.20;;;;;;5054939;28;20007;-77
2022/04/22 07:46:49;;;;;;;;;;;435.40;2355.20;;;;;;5055048;28;20367;-76
2022/04/22 07:49:16;;;;;;;;;;;435.70;2355.20;;;;;;5054789;28;20379;-76
2022/04/22 07:51:41;;;;;;;;;;;435.80;2355.20;;;;;;5053111;28;19912;-77
2022/04/22 07:54:12;;;;;;;;;;;435.80;2355.20;;;;;;5053407;28;19911;-76
2022/04/22 07:56:38;;;;;;;;;;;436.00;2355.20;;;;;;5050402;28;19908;-77
2022/04/22 07:59:03;;;;;;;;;;;436.10;2355.20;;;;;;5054375;28;20261;-77
2022/04/22 08:01:29;;;;;;;;;;;436.10;2355.20;;;;;;5053485;28;21295;-77
2022/04/22 08:03:58;;;;;;;;;;;460.80;2380.80;;;;;;5050495;28;20291;-77
2022/04/22 08:06:23;;;;;;;;;;;460.80;2380.80;;;;;;5053532;28;19905;-76
2022/04/22 08:08:49;;;;;;;;;;;460.80;2380.80;;;;;;5053548;28;20842;-78
2022/04/22 08:11:15;;;;;;;;;;;460.90;2380.80;;;;;;5053487;28;20634;-78
2022/04/22 08:13:41;;;;;;;;;;;460.80;2380.80;;;;;;5053246;28;20349;-76
2022/04/22 08:16:07;;;;;;;;;;;460.80;2380.80;;;;;;5053554;28;20486;-78
2022/04/22 08:18:33;;;;;;;;;;;460.80;2380.80;;;;;;5053308;28;19905;-77
2022/04/22 08:20:58;;;;;;;;;;;460.80;2380.80;;;;;;5053511;28;20280;-77
2022/04/22 08:23:24;;;;;;;;;;;460.80;2380.80;;;;;;5052991;28;19967;-78
2022/04/22 08:25:49;;;;;;;;;;;460.90;2380.80;;;;;;5053015;28;19944;-77
2022/04/22 08:28:15;;;;;;;;;;;461.10;2380.80;;;;;;5053289;28;20292;-78
2022/04/22 08:30:41;;;;;;;;;;;461.10;2380.80;;;;;;5052987;28;19909;-78
2022/04/22 08:33:06;;;;;;;;;;;461.20;2380.80;;;;;;5053198;28;19905;-77
2022/04/22 08:35:35;;;;;;;;;;;461.30;2380.80;;;;;;5052147;28;19917;-77
2022/04/22 08:38:03;;;;;;;;;;;461.50;2380.80;;;;;;5051517;28;20344;-77
2022/04/22 08:40:30;;;;;;;;;;;461.60;2380.80;;;;;;5053779;28;19951;-77
2022/04/22 08:42:57;;;;;;;;;;;461.70;2380.80;;;;;;5054258;28;19912;-77
2022/04/22 08:45:25;;;;;;;;;;;486.50;2380.80;;;;;;5052794;28;19905;-76
2022/04/22 08:50:35;;;;;;;;;;;486.60;2380.80;;;;;;5053739;28;19966;-78
2022/04/22 08:53:03;;;;;;;;;;;486.70;2380.80;;;;;;5053761;28;19911;-78
2022/04/22 08:55:30;;;;;;;;;;;486.60;2380.80;;;;;;5054130;28;20423;-77
2022/04/22 08:57:55;;;;;;;;;;;486.70;2380.80;;;;;;5053608;28;19948;-76
2022/04/22 09:00:27;;;;;;;;;;;486.80;2380.80;;;;;;5053934;28;19951;-78
2022/04/22 09:02:56;;;;;;;;;;;486.80;2380.80;;;;;;5053215;28;20375;-76
2022/04/22 09:05:21;;;;;;;;;;;486.90;2380.80;;;;;;5049353;28;20283;-77
2022/04/22 09:07:47;;;;;;;;;;;486.80;2380.80;;;;;;5053231;28;19987;-77
2022/04/22 09:10:13;;;;;;;;;;;486.80;2380.80;;;;;;5051672;28;20361;-78
2022/04/22 09:12:42;;;;;;;;;;;487.00;2380.80;;;;;;5049934;28;20270;-77
2022/04/22 09:15:10;;;;;;;;;;;487.00;2380.80;;;;;;5052016;28;19909;-79
2022/04/22 09:17:37;;;;;;;;;;;486.90;2380.80;;;;;;5053732;28;19947;-75
2022/04/22 09:20:04;;;;;;;;;;;487.10;2380.80;;;;;;5053368;28;19939;-77
2022/04/22 09:22:34;;;;;;;;;;;487.10;2380.80;;;;;;5053377;28;19904;-77
2022/04/22 09:25:00;;;;;;;;;;;512.00;2380.80;;;;;;5052228;28;19950;-75
2022/04/22 09:27:33;;;;;;;;;;;512.10;2380.80;;;;;;5051573;28;19917;-77
2022/04/22 09:30:00;;;;;;;;;;;512.10;2380.80;;;;;;5052632;28;19924;-80
2022/04/22 09:32:30;;;;;;;;;;;512.30;2380.80;;;;;;5052193;28;19912;-78
2022/04/22 09:34:57;;;;;;;;;;;512.10;2380.80;;;;;;5052087;28;19915;-77
2022/04/22 09:42:52;;;;;;;;;;;512.30;2329.60;;;;;;5053313;28;19911;-78
2022/04/22 09:45:18;;;;;;;;;;;512.60;2304.00;;;;;;5051786;28;19913;-77
2022/04/22 09:47:44;;;;;;;;;;;512.60;2329.60;;;;;;5053104;28;19912;-78
2022/04/22 09:50:11;;;;;;;;;;;512.80;2304.00;;;;;;5051781;28;20387;-76
2022/04/22 09:52:44;;;;;;;;;;;512.60;2252.80;;;;;;5050880;28;19916;-81
2022/04/22 09:55:11;;;;;;;;;;;512.90;2278.40;;;;;;5051112;28;20352;-77
2022/04/22 09:57:53;;;;;;;;;;;512.90;2252.80;;;;;;5050713;28;19960;-77
2022/04/22 10:00:21;;;;;;;;;;;512.90;2201.60;;;;;;5050653;28;19916;-77
2022/04/22 10:02:51;;;;;;;;;;;537.60;2252.80;;;;;;5052934;28;20001;-77
2022/04/22 10:05:20;;;;;;;;;;;537.60;2252.80;;;;;;5043594;28;19978;-80
2022/04/22 10:07:50;;;;;;;;;;;537.80;2201.60;;;;;;5036517;28;20276;-76
2022/04/22 10:10:17;;;;;;;;;;;537.70;2227.20;;;;;;5047737;28;20353;-77
2022/04/22 10:12:43;;;;;;;;;;;537.90;2278.40;;;;;;5037546;28;19908;-77
2022/04/22 10:15:09;;;;;;;;;;;538.10;2201.60;;;;;;5050859;28;19916;-81
2022/04/22 10:17:37;;;;;;;;;;;538.40;2201.60;;;;;;5049881;28;19916;-74
2022/04/22 10:20:04;;;;;;;;;;;538.50;2176.00;;;;;;5048835;28;19912;-75
2022/04/22 10:22:31;;;;;;;;;;;538.50;2201.60;;;;;;5052342;28;19904;-74
2022/04/22 10:24:58;;;;;;;;;;;538.50;2099.20;;;;;;5047372;28;20011;-76
2022/04/22 10:27:24;;;;;;;;;;;538.40;1996.80;;;;;;5046589;28;20000;-74
2022/04/22 10:29:50;;;;;;;;;;;538.40;2099.20;;;;;;5052484;28;19913;-78
2022/04/22 10:32:15;;;;;;;;;;;563.20;2073.60;;;;;;5051391;28;20353;-76
2022/04/22 10:34:42;;;;;;;;;;;538.50;2022.40;;;;;;5044704;28;20345;-76
2022/04/22 10:37:20;;;;;;;;;;;563.30;1996.80;;;;;;5052318;28;19904;-77
2022/04/22 10:39:51;;;;;;;;;;;563.20;1971.20;;;;;;5049208;28;19924;-75
2022/04/22 10:42:17;;;;;;;;;;;563.60;2022.40;;;;;;5051697;28;20391;-75
2022/04/22 10:47:37;;;;;;;;;;;563.60;1971.20;;;;;;5032342;28;19932;-76
2022/04/22 10:50:22;;;;;;;;;;;563.30;1894.40;;;;;;5048684;28;19909;-77
2022/04/22 10:53:03;;;;;;;;;;;563.50;1920.00;;;;;;5050807;28;19909;-77
2022/04/22 10:55:34;;;;;;;;;;;563.60;1894.40;;;;;;5047116;28;20293;-76
2022/04/22 10:58:12;;;;;;;;;;;563.60;1843.20;;;;;;5048267;28;20368;-75
2022/04/22 11:00:42;;;;;;;;;;;563.70;1868.80;;;;;;5050464;28;20578;-76
2022/04/22 11:03:34;;;;;;;;;;;563.80;1894.40;;;;;;5049989;28;20400;-76
2022/04/22 11:06:07;;;;;;;;;;;563.90;1894.40;;;;;;5053201;28;19908;-75
2022/04/22 11:08:37;;;;;;;;;;;564.10;1868.80;;;;;;5052021;28;19904;-76
2022/04/22 11:11:05;;;;;;;;;;;564.00;1843.20;;;;;;5052208;28;19917;-76
2022/04/22 11:13:38;;;;;;;;;;;564.00;1792.00;;;;;;5054850;28;20015;-74
2022/04/22 11:16:13;;;;;;;;;;;563.90;1843.20;;;;;;5055714;28;20280;-75
2022/04/22 11:18:40;;;;;;;;;;;564.00;1817.60;;;;;;5055701;28;19912;-79
2022/04/22 11:21:15;;;;;;;;;;;564.10;1766.40;;;;;;5055652;28;19948;-76
2022/04/22 11:23:44;;;;;;;;;;;564.10;1740.80;;;;;;5050453;28;19947;-79
2022/04/22 11:26:14;;;;;;;;;;;564.10;1766.40;;;;;;5050833;28;19913;-74
2022/04/22 11:28:41;;;;;;;;;;;588.80;1740.80;;;;;;5035175;28;19921;-78
2022/04/22 11:31:10;;;;;;;;;;;588.80;1766.40;;;;;;5035611;28;19920;-79
2022/04/22 11:33:55;;;;;;;;;;;588.90;1715.20;;;;;;5035315;28;19909;-78
2022/04/22 11:36:21;;;;;;;;;;;;;;;;;;5035624;28;19956;-74
2022/04/22 11:38:47;;;;;;;;;;;589.10;1740.80;;;;;;5045301;28;20345;-76
2022/04/22 11:41:13;;;;;;;;;;;589.30;1715.20;;;;;;5043518;28;20361;-76
2022/04/22 11:43:39;;;;;;;;;;;589.50;1612.80;;;;;;5049067;28;19912;-76
2022/04/22 11:46:04;;;;;;;;;;;589.40;1638.40;;;;;;5041124;28;19904;-75
2022/04/22 11:48:30;;;;;;;;;;;589.50;1638.40;;;;;;5048597;28;19908;-75
2022/04/22 11:51:00;;;;;;;;;;;589.50;1612.80;;;;;;5047746;28;19916;-76
2022/04/22 11:53:26;;;;;;;;;;;589.40;1612.80;;;;;;5052379;28;19905;-76
2022/04/22 11:55:52;;;;;;;;;;;589.20;1587.20;;;;;;5036833;28;19924;-76
2022/04/22 11:58:20;;;;;;;;;;;589.20;1612.80;;;;;;5043379;28;19909;-79
2022/04/22 12:06:15;;;;;;;;;;;589.40;1587.20;;;;;;5055257;28;20403;-76
2022/04/22 12:08:50;;;;;;;;;;;589.30;1561.60;;;;;;5054635;28;19909;-75
2022/04/22 12:11:18;;;;;;;;;;;589.40;1561.60;;;;;;5054631;28;19913;-78
2022/04/22 12:13:45;;;;;;;;;;;589.60;1561.60;;;;;;5054907;28;19998;-84
2022/04/22 12:16:11;;;;;;;;;;;589.60;1536.00;;;;;;5057374;28;19928;-75
2022/04/22 12:18:37;;;;;;;;;;;614.40;1536.00;;;;;;5052378;28;19905;-76
2022/04/22 12:21:06;;;;;;;;;;;614.40;1561.60;;;;;;5054517;28;19928;-75
2022/04/22 12:23:37;;;;;;;;;;;614.70;1561.60;;;;;;5053114;28;19927;-75
2022/04/22 12:26:02;;;;;;;;;;;589.70;1536.00;;;;;;5052416;28;19920;-77
2022/04/22 12:28:28;;;;;;;;;;;589.70;1561.60;;;;;;5049823;28;19959;-77
2022/04/22 12:30:54;;;;;;;;;;;614.40;1561.60;;;;;;5051679;28;19965;-77
2022/04/22 12:33:26;;;;;;;;;;;614.50;1587.20;;;;;;5049946;28;20296;-76
2022/04/22 12:36:01;;;;;;;;;;;614.50;1536.00;;;;;;5051449;28;19909;-78
2022/04/22 12:38:29;;;;;;;;;;;614.40;1536.00;;;;;;5050232;28;20353;-77
2022/04/22 12:40:55;;;;;;;;;;;589.70;1510.40;;;;;;5051183;28;20022;-77
2022/04/22 12:43:22;;;;;;;;;;;614.50;1536.00;;;;;;5052234;28;19905;-77
2022/04/22 12:54:09;;;;;;;;;;;614.50;1484.80;;;;;;5051741;28;19943;-78
2022/04/22 12:56:34;;;;;;;;;;;614.60;1484.80;;;;;;5051742;28;19912;-74
2022/04/22 12:59:01;;;;;;;;;;;614.70;1510.40;;;;;;5053284;28;19935;-77
2022/04/22 13:01:29;;;;;;;;;;;614.80;1510.40;;;;;;5051643;28;19912;-76
2022/04/22 13:03:55;;;;;;;;;;;614.80;1510.40;;;;;;5051882;28;19905;-77
2022/04/22 13:06:39;;;;;;;;;;;614.60;1510.40;;;;;;5051812;28;19931;-77
2022/04/22 13:09:05;;;;;;;;;;;614.50;1510.40;;;;;;5050730;28;19904;-76
2022/04/22 13:11:31;;;;;;;;;;;589.70;1459.20;;;;;;5052293;28;20313;-76
2022/04/22 13:13:56;;;;;;;;;;;589.70;1510.40;;;;;;5051003;28;19962;-75
2022/04/22 13:16:22;;;;;;;;;;;589.50;1536.00;;;;;;5052637;28;20311;-75
2022/04/22 13:18:47;;;;;;;;;;;589.30;1561.60;;;;;;5052904;28;19952;-75
2022/04/22 13:21:13;;;;;;;;;;;589.30;1561.60;;;;;;5053144;28;19947;-78
2022/04/22 13:23:39;;;;;;;;;;;589.10;1587.20;;;;;;5070615;28;19912;-75
2022/04/22 13:26:05;;;;;;;;;;;589.00;1612.80;;;;;;5071411;28;20272;-76
2022/04/22 13:28:31;;;;;;;;;;;589.00;1612.80;;;;;;5072751;28;19912;-77
2022/04/22 13:30:57;;;;;;;;;;;588.80;1587.20;;;;;;5072766;28;19913;-79
2022/04/22 13:33:22;;;;;;;;;;;589.40;1587.20;;;;;;5058498;28;19915;-78
2022/04/22 13:35:48;;;;;;;;;;;589.40;1561.60;;;;;;5052958;28;20471;-78
2022/04/22 13:38:13;;;;;;;;;;;589.50;1561.60;;;;;;5052399;28;20022;-78
2022/04/22 13:40:39;;;;;;;;;;;614.40;1561.60;;;;;;5052979;28;19908;-74
2022/04/22 13:43:05;;;;;;;;;;;614.50;1536.00;;;;;;5052697;28;19944;-76
2022/04/22 13:53:43;;;;;;;;;;;588.80;1612.80;;;;;;5061076;28;20156;-76
2022/04/22 13:56:09;;;;;;;;;;;588.80;1664.00;;;;;;5063434;28;20015;-76
2022/04/22 13:58:37;;;;;;;;;;;588.90;1664.00;;;;;;5072534;28;19912;-75
2022/04/22 14:01:03;;;;;;;;;;;588.90;1638.40;;;;;;5055034;28;20403;-76
2022/04/22 14:03:29;;;;;;;;;;;588.90;1664.00;;;;;;5051758;28;19905;-77
2022/04/22 14:05:55;;;;;;;;;;;564.10;1612.80;;;;;;5051455;28;19911;-76
2022/04/22 14:08:20;;;;;;;;;;;588.80;1638.40;;;;;;5052348;28;19904;-76
2022/04/22 14:10:46;;;;;;;;;;;589.00;1638.40;;;;;;5052542;28;19947;-77
2022/04/22 14:13:15;;;;;;;;;;;589.20;1638.40;;;;;;5052422;28;19905;-75
2022/04/22 14:15:41;;;;;;;;;;;589.20;1612.80;;;;;;5052189;28;19904;-75
2022/04/22 14:18:07;;;;;;;;;;;589.00;1638.40;;;;;;5052428;28;19905;-73
2022/04/22 14:20:32;;;;;;;;;;;589.10;1612.80;;;;;;5053670;28;19995;-76
2022/04/22 14:22:58;;;;;;;;;;;589.30;1638.40;;;;;;5053242;28;20051;-76
2022/04/22 14:25:24;;;;;;;;;;;589.20;1638.40;;;;;;5050643;28;19905;-77
2022/04/22 14:27:49;;;;;;;;;;;589.20;1638.40;;;;;;5052036;28;20660;-76
2022/04/22 14:30:15;;;;;;;;;;;589.20;1612.80;;;;;;5051234;28;19920;-78
2022/04/22 14:32:40;;;;;;;;;;;589.10;1638.40;;;;;;5049483;28;19919;-78
2022/04/22 14:35:06;;;;;;;;;;;589.10;1689.60;;;;;;5049789;28;19908;-77
2022/04/22 14:37:33;;;;;;;;;;;588.90;1664.00;;;;;;5051124;28;19959;-77
2022/04/22 14:51:51;;;;;;;15.25;5.30;;;564.00;1689.60;;;;;;5108591;27;20905;-77
2022/04/22 14:54:17;;;;;;;18.20;6.47;;;588.90;1689.60;;;;;;5109858;28;20016;-81
2022/04/22 14:56:43;;;;;;;10.93;5.28;;;563.80;1689.60;;;;;;5109711;28;20024;-78
2022/04/22 14:59:13;;;;;;;15.32;6.43;;;563.60;1740.80;;;;;;5091092;28;20020;-76
2022/04/22 15:01:39;;;;;;;14.10;5.57;;;563.40;1792.00;;;;;;5091244;28;20039;-74
2022/04/22 15:04:04;;;;;;;15.90;7.15;;;538.20;1945.60;;;;;;5109405;28;20024;-73
2022/04/22 15:06:32;;;;;;;18.10;6.32;;;537.90;2048.00;;;;;;5091066;28;20066;-74